sensor_id;sensor_type;location;lat;lon;timestamp;P1;durP1;ratioP1;P2;durP2;ratioP2
15454;SDS011;21057;51.024;7.540;2024-03-02T00:01:44;24.30;;;22.77;;
15454;SDS011;21057;51.024;7.540;2024-03-02T00:04:11;24.50;;;22.97;;
15454;SDS011;21057;51.024;7.540;2024-03-02T00:06:39;23.90;;;22.43;;
15454;SDS011;21057;51.024;7.540;2024-03-02T00:09:05;24.07;;;22.47;;
15454;SDS011;21057;51.024;7.540;2024-03-02T00:11:37;24.50;;;22.83;;
15454;SDS011;21057;51.024;7.540;2024-03-02T00:14:04;25.73;;;24.03;;
15454;SDS011;21057;51.024;7.540;2024-03-02T00:16:31;25.13;;;23.43;;
15454;SDS011;21057;51.024;7.540;2024-03-02T00:19:01;24.03;;;22.53;;
15454;SDS011;21057;51.024;7.540;2024-03-02T00:21:28;24.70;;;23.10;;
15454;SDS011;21057;51.024;7.540;2024-03-02T00:23:58;24.83;;;23.30;;
15454;SDS011;21057;51.024;7.540;2024-03-02T00:26:27;24.70;;;23.10;;
15454;SDS011;21057;51.024;7.540;2024-03-02T00:28:55;24.50;;;23.00;;
15454;SDS011;21057;51.024;7.540;2024-03-02T00:31:22;25.23;;;23.73;;
15454;SDS011;21057;51.024;7.540;2024-03-02T00:33:50;25.07;;;23.53;;
15454;SDS011;21057;51.024;7.540;2024-03-02T00:36:21;25.30;;;23.60;;
15454;SDS011;21057;51.024;7.540;2024-03-02T00:38:51;25.40;;;23.63;;
15454;SDS011;21057;51.024;7.540;2024-03-02T00:41:20;24.47;;;22.97;;
15454;SDS011;21057;51.024;7.540;2024-03-02T00:43:51;24.10;;;22.60;;
15454;SDS011;21057;51.024;7.540;2024-03-02T00:46:23;23.70;;;22.20;;
15454;SDS011;21057;51.024;7.540;2024-03-02T00:48:51;23.87;;;22.47;;
15454;SDS011;21057;51.024;7.540;2024-03-02T00:51:20;22.67;;;21.27;;
15454;SDS011;21057;51.024;7.540;2024-03-02T00:53:47;22.90;;;21.40;;
15454;SDS011;21057;51.024;7.540;2024-03-02T00:56:15;22.93;;;21.43;;
15454;SDS011;21057;51.024;7.540;2024-03-02T00:58:44;23.20;;;21.80;;
15454;SDS011;21057;51.024;7.540;2024-03-02T01:01:11;22.97;;;21.47;;
15454;SDS011;21057;51.024;7.540;2024-03-02T01:03:38;23.37;;;21.83;;
15454;SDS011;21057;51.024;7.540;2024-03-02T01:06:06;23.10;;;21.60;;
15454;SDS011;21057;51.024;7.540;2024-03-02T01:08:33;23.30;;;21.80;;
15454;SDS011;21057;51.024;7.540;2024-03-02T01:11:00;22.37;;;20.97;;
15454;SDS011;21057;51.024;7.540;2024-03-02T01:13:27;22.20;;;20.80;;
15454;SDS011;21057;51.024;7.540;2024-03-02T01:15:55;22.73;;;21.33;;
15454;SDS011;21057;51.024;7.540;2024-03-02T01:18:22;22.93;;;21.40;;
15454;SDS011;21057;51.024;7.540;2024-03-02T01:20:49;23.33;;;21.73;;
15454;SDS011;21057;51.024;7.540;2024-03-02T01:23:17;22.60;;;21.10;;
15454;SDS011;21057;51.024;7.540;2024-03-02T01:25:45;22.47;;;21.07;;
15454;SDS011;21057;51.024;7.540;2024-03-02T01:28:12;22.20;;;20.90;;
15454;SDS011;21057;51.024;7.540;2024-03-02T01:30:39;22.63;;;21.20;;
15454;SDS011;21057;51.024;7.540;2024-03-02T01:33:07;22.70;;;21.30;;
15454;SDS011;21057;51.024;7.540;2024-03-02T01:35:34;23.03;;;21.53;;
15454;SDS011;21057;51.024;7.540;2024-03-02T01:38:01;23.60;;;21.90;;
15454;SDS011;21057;51.024;7.540;2024-03-02T01:40:29;22.50;;;21.20;;
15454;SDS011;21057;51.024;7.540;2024-03-02T01:42:56;22.10;;;20.77;;
15454;SDS011;21057;51.024;7.540;2024-03-02T01:45:24;22.50;;;21.10;;
15454;SDS011;21057;51.024;7.540;2024-03-02T01:47:50;22.30;;;20.90;;
15454;SDS011;21057;51.024;7.540;2024-03-02T01:50:25;21.90;;;20.60;;
15454;SDS011;21057;51.024;7.540;2024-03-02T01:52:53;21.83;;;20.47;;
15454;SDS011;21057;51.024;7.540;2024-03-02T01:55:21;21.90;;;20.50;;
15454;SDS011;21057;51.024;7.540;2024-03-02T01:57:48;21.67;;;20.37;;
15454;SDS011;21057;51.024;7.540;2024-03-02T02:00:16;22.40;;;21.00;;
15454;SDS011;21057;51.024;7.540;2024-03-02T02:02:43;22.97;;;21.50;;
15454;SDS011;21057;51.024;7.540;2024-03-02T02:05:10;22.53;;;21.03;;
15454;SDS011;21057;51.024;7.540;2024-03-02T02:07:39;21.60;;;20.30;;
15454;SDS011;21057;51.024;7.540;2024-03-02T02:10:06;22.03;;;20.73;;
15454;SDS011;21057;51.024;7.540;2024-03-02T02:12:34;22.47;;;20.90;;
15454;SDS011;21057;51.024;7.540;2024-03-02T02:15:01;21.27;;;19.97;;
15454;SDS011;21057;51.024;7.540;2024-03-02T02:17:28;21.40;;;20.03;;
15454;SDS011;21057;51.024;7.540;2024-03-02T02:19:55;21.17;;;19.77;;
15454;SDS011;21057;51.024;7.540;2024-03-02T02:22:24;21.47;;;20.17;;
15454;SDS011;21057;51.024;7.540;2024-03-02T02:24:50;21.17;;;19.87;;
15454;SDS011;21057;51.024;7.540;2024-03-02T02:27:17;20.50;;;19.30;;
15454;SDS011;21057;51.024;7.540;2024-03-02T02:29:44;21.00;;;19.27;;
15454;SDS011;21057;51.024;7.540;2024-03-02T02:32:11;21.33;;;20.03;;
15454;SDS011;21057;51.024;7.540;2024-03-02T02:34:37;21.60;;;20.20;;
15454;SDS011;21057;51.024;7.540;2024-03-02T02:37:04;21.90;;;20.50;;
15454;SDS011;21057;51.024;7.540;2024-03-02T02:39:32;21.20;;;19.90;;
15454;SDS011;21057;51.024;7.540;2024-03-02T02:41:59;20.60;;;19.40;;
15454;SDS011;21057;51.024;7.540;2024-03-02T02:44:27;21.80;;;20.50;;
15454;SDS011;21057;51.024;7.540;2024-03-02T02:46:54;21.53;;;20.20;;
15454;SDS011;21057;51.024;7.540;2024-03-02T02:49:21;22.30;;;20.80;;
15454;SDS011;21057;51.024;7.540;2024-03-02T02:51:48;21.50;;;20.17;;
15454;SDS011;21057;51.024;7.540;2024-03-02T02:54:15;21.40;;;20.10;;
15454;SDS011;21057;51.024;7.540;2024-03-02T02:56:43;21.03;;;19.73;;
15454;SDS011;21057;51.024;7.540;2024-03-02T02:59:10;21.20;;;19.90;;
15454;SDS011;21057;51.024;7.540;2024-03-02T03:01:37;21.80;;;20.40;;
15454;SDS011;21057;51.024;7.540;2024-03-02T03:04:03;21.47;;;19.97;;
15454;SDS011;21057;51.024;7.540;2024-03-02T03:06:30;23.20;;;21.23;;
15454;SDS011;21057;51.024;7.540;2024-03-02T03:08:57;22.33;;;20.43;;
15454;SDS011;21057;51.024;7.540;2024-03-02T03:11:24;22.07;;;20.77;;
15454;SDS011;21057;51.024;7.540;2024-03-02T03:13:52;21.50;;;20.20;;
15454;SDS011;21057;51.024;7.540;2024-03-02T03:16:20;21.90;;;20.40;;
15454;SDS011;21057;51.024;7.540;2024-03-02T03:18:47;21.10;;;19.80;;
15454;SDS011;21057;51.024;7.540;2024-03-02T03:21:16;21.70;;;20.20;;
15454;SDS011;21057;51.024;7.540;2024-03-02T03:23:43;21.90;;;20.60;;
15454;SDS011;21057;51.024;7.540;2024-03-02T03:26:10;21.17;;;19.87;;
15454;SDS011;21057;51.024;7.540;2024-03-02T03:28:36;21.10;;;19.80;;
15454;SDS011;21057;51.024;7.540;2024-03-02T03:31:05;21.90;;;20.50;;
15454;SDS011;21057;51.024;7.540;2024-03-02T03:33:32;22.67;;;21.07;;
15454;SDS011;21057;51.024;7.540;2024-03-02T03:35:59;21.80;;;20.47;;
15454;SDS011;21057;51.024;7.540;2024-03-02T03:38:28;21.73;;;20.33;;
15454;SDS011;21057;51.024;7.540;2024-03-02T03:40:55;21.63;;;20.33;;
15454;SDS011;21057;51.024;7.540;2024-03-02T03:43:22;21.83;;;20.53;;
15454;SDS011;21057;51.024;7.540;2024-03-02T03:45:48;22.63;;;21.13;;
15454;SDS011;21057;51.024;7.540;2024-03-02T03:48:16;22.67;;;21.10;;
15454;SDS011;21057;51.024;7.540;2024-03-02T03:50:43;22.17;;;20.87;;
15454;SDS011;21057;51.024;7.540;2024-03-02T03:53:10;21.30;;;19.97;;
15454;SDS011;21057;51.024;7.540;2024-03-02T03:55:37;22.37;;;20.97;;
15454;SDS011;21057;51.024;7.540;2024-03-02T03:58:04;20.80;;;19.50;;
15454;SDS011;21057;51.024;7.540;2024-03-02T04:00:31;21.67;;;20.10;;
15454;SDS011;21057;51.024;7.540;2024-03-02T04:02:58;21.67;;;20.27;;
15454;SDS011;21057;51.024;7.540;2024-03-02T04:05:26;21.63;;;20.23;;
15454;SDS011;21057;51.024;7.540;2024-03-02T04:07:53;21.20;;;19.90;;
15454;SDS011;21057;51.024;7.540;2024-03-02T04:10:19;21.80;;;20.40;;
15454;SDS011;21057;51.024;7.540;2024-03-02T04:12:46;22.83;;;21.33;;
15454;SDS011;21057;51.024;7.540;2024-03-02T04:15:15;22.53;;;21.00;;
15454;SDS011;21057;51.024;7.540;2024-03-02T04:17:43;22.57;;;20.93;;
15454;SDS011;21057;51.024;7.540;2024-03-02T04:20:10;22.00;;;20.50;;
15454;SDS011;21057;51.024;7.540;2024-03-02T04:22:40;21.97;;;20.57;;
15454;SDS011;21057;51.024;7.540;2024-03-02T04:25:08;21.93;;;20.53;;
15454;SDS011;21057;51.024;7.540;2024-03-02T04:27:35;22.30;;;20.80;;
15454;SDS011;21057;51.024;7.540;2024-03-02T04:30:03;22.03;;;20.60;;
15454;SDS011;21057;51.024;7.540;2024-03-02T04:32:31;21.73;;;20.33;;
15454;SDS011;21057;51.024;7.540;2024-03-02T04:34:58;21.73;;;20.23;;
15454;SDS011;21057;51.024;7.540;2024-03-02T04:37:25;22.20;;;20.60;;
15454;SDS011;21057;51.024;7.540;2024-03-02T04:39:53;22.90;;;21.40;;
15454;SDS011;21057;51.024;7.540;2024-03-02T04:42:20;22.37;;;20.97;;
15454;SDS011;21057;51.024;7.540;2024-03-02T04:44:47;22.63;;;21.20;;
15454;SDS011;21057;51.024;7.540;2024-03-02T04:47:14;21.90;;;20.60;;
15454;SDS011;21057;51.024;7.540;2024-03-02T04:49:41;22.37;;;20.83;;
15454;SDS011;21057;51.024;7.540;2024-03-02T04:52:08;22.07;;;20.67;;
15454;SDS011;21057;51.024;7.540;2024-03-02T04:54:35;22.93;;;21.43;;
15454;SDS011;21057;51.024;7.540;2024-03-02T04:57:23;22.17;;;20.70;;
15454;SDS011;21057;51.024;7.540;2024-03-02T04:59:50;23.20;;;21.60;;
15454;SDS011;21057;51.024;7.540;2024-03-02T05:02:17;23.93;;;22.27;;
15454;SDS011;21057;51.024;7.540;2024-03-02T05:04:44;23.53;;;22.03;;
15454;SDS011;21057;51.024;7.540;2024-03-02T05:07:11;23.87;;;22.37;;
15454;SDS011;21057;51.024;7.540;2024-03-02T05:09:37;22.67;;;21.13;;
15454;SDS011;21057;51.024;7.540;2024-03-02T05:12:05;23.43;;;21.70;;
15454;SDS011;21057;51.024;7.540;2024-03-02T05:15:07;23.47;;;21.90;;
15454;SDS011;21057;51.024;7.540;2024-03-02T05:17:35;22.90;;;21.43;;
15454;SDS011;21057;51.024;7.540;2024-03-02T05:20:02;23.90;;;22.20;;
15454;SDS011;21057;51.024;7.540;2024-03-02T05:22:30;23.50;;;21.90;;
15454;SDS011;21057;51.024;7.540;2024-03-02T05:24:56;24.40;;;22.67;;
15454;SDS011;21057;51.024;7.540;2024-03-02T05:27:24;24.33;;;22.57;;
15454;SDS011;21057;51.024;7.540;2024-03-02T05:29:51;23.80;;;22.03;;
15454;SDS011;21057;51.024;7.540;2024-03-02T05:32:19;24.77;;;23.17;;
15454;SDS011;21057;51.024;7.540;2024-03-02T05:34:45;24.50;;;22.90;;
15454;SDS011;21057;51.024;7.540;2024-03-02T05:37:12;25.37;;;23.27;;
15454;SDS011;21057;51.024;7.540;2024-03-02T05:39:39;24.83;;;22.93;;
15454;SDS011;21057;51.024;7.540;2024-03-02T05:42:06;24.20;;;22.70;;
15454;SDS011;21057;51.024;7.540;2024-03-02T05:44:33;24.43;;;22.87;;
15454;SDS011;21057;51.024;7.540;2024-03-02T05:47:00;23.47;;;22.00;;
15454;SDS011;21057;51.024;7.540;2024-03-02T05:49:29;23.43;;;21.93;;
15454;SDS011;21057;51.024;7.540;2024-03-02T05:51:56;25.47;;;23.17;;
15454;SDS011;21057;51.024;7.540;2024-03-02T05:54:22;24.90;;;23.20;;
15454;SDS011;21057;51.024;7.540;2024-03-02T05:56:49;23.77;;;22.17;;
15454;SDS011;21057;51.024;7.540;2024-03-02T05:59:16;23.20;;;21.63;;
15454;SDS011;21057;51.024;7.540;2024-03-02T06:01:43;24.57;;;22.97;;
15454;SDS011;21057;51.024;7.540;2024-03-02T06:04:11;23.27;;;21.77;;
15454;SDS011;21057;51.024;7.540;2024-03-02T06:06:40;22.80;;;21.40;;
15454;SDS011;21057;51.024;7.540;2024-03-02T06:09:06;23.20;;;21.70;;
15454;SDS011;21057;51.024;7.540;2024-03-02T06:11:34;23.60;;;22.10;;
15454;SDS011;21057;51.024;7.540;2024-03-02T06:14:01;23.70;;;22.10;;
15454;SDS011;21057;51.024;7.540;2024-03-02T06:16:28;22.70;;;21.17;;
15454;SDS011;21057;51.024;7.540;2024-03-02T06:18:57;22.73;;;21.23;;
15454;SDS011;21057;51.024;7.540;2024-03-02T06:21:24;22.93;;;21.40;;
15454;SDS011;21057;51.024;7.540;2024-03-02T06:23:52;23.40;;;21.67;;
15454;SDS011;21057;51.024;7.540;2024-03-02T06:26:19;23.03;;;21.53;;
15454;SDS011;21057;51.024;7.540;2024-03-02T06:28:46;23.80;;;22.00;;
15454;SDS011;21057;51.024;7.540;2024-03-02T06:31:13;23.53;;;21.97;;
15454;SDS011;21057;51.024;7.540;2024-03-02T06:33:40;23.43;;;21.83;;
15454;SDS011;21057;51.024;7.540;2024-03-02T06:36:06;23.07;;;21.67;;
15454;SDS011;21057;51.024;7.540;2024-03-02T06:38:34;23.70;;;22.20;;
15454;SDS011;21057;51.024;7.540;2024-03-02T06:41:03;24.23;;;22.73;;
15454;SDS011;21057;51.024;7.540;2024-03-02T06:43:29;23.97;;;22.50;;
15454;SDS011;21057;51.024;7.540;2024-03-02T06:45:56;23.70;;;22.27;;
15454;SDS011;21057;51.024;7.540;2024-03-02T06:48:23;23.90;;;22.50;;
15454;SDS011;21057;51.024;7.540;2024-03-02T06:50:50;24.20;;;22.60;;
15454;SDS011;21057;51.024;7.540;2024-03-02T06:53:17;24.57;;;22.67;;
15454;SDS011;21057;51.024;7.540;2024-03-02T06:55:45;24.60;;;23.00;;
15454;SDS011;21057;51.024;7.540;2024-03-02T06:58:13;24.00;;;22.13;;
15454;SDS011;21057;51.024;7.540;2024-03-02T07:00:41;22.03;;;20.63;;
15454;SDS011;21057;51.024;7.540;2024-03-02T07:03:09;22.43;;;21.03;;
15454;SDS011;21057;51.024;7.540;2024-03-02T07:05:36;24.27;;;22.73;;
15454;SDS011;21057;51.024;7.540;2024-03-02T07:08:03;24.57;;;22.90;;
15454;SDS011;21057;51.024;7.540;2024-03-02T07:10:31;24.07;;;22.47;;
15454;SDS011;21057;51.024;7.540;2024-03-02T07:12:57;23.23;;;21.83;;
15454;SDS011;21057;51.024;7.540;2024-03-02T07:15:26;22.50;;;21.10;;
15454;SDS011;21057;51.024;7.540;2024-03-02T07:18:12;22.93;;;21.43;;
15454;SDS011;21057;51.024;7.540;2024-03-02T07:20:39;21.90;;;20.50;;
15454;SDS011;21057;51.024;7.540;2024-03-02T07:23:05;24.10;;;22.50;;
15454;SDS011;21057;51.024;7.540;2024-03-02T07:25:32;23.40;;;21.80;;
15454;SDS011;21057;51.024;7.540;2024-03-02T07:27:59;23.10;;;21.50;;
15454;SDS011;21057;51.024;7.540;2024-03-02T07:30:27;23.43;;;21.73;;
15454;SDS011;21057;51.024;7.540;2024-03-02T07:32:54;22.90;;;21.40;;
15454;SDS011;21057;51.024;7.540;2024-03-02T07:35:21;22.67;;;21.20;;
15454;SDS011;21057;51.024;7.540;2024-03-02T07:37:51;21.33;;;19.73;;
15454;SDS011;21057;51.024;7.540;2024-03-02T07:40:18;22.33;;;20.80;;
15454;SDS011;21057;51.024;7.540;2024-03-02T07:42:45;22.13;;;20.70;;
15454;SDS011;21057;51.024;7.540;2024-03-02T07:45:12;22.33;;;20.70;;
15454;SDS011;21057;51.024;7.540;2024-03-02T07:47:40;21.77;;;20.20;;
15454;SDS011;21057;51.024;7.540;2024-03-02T07:50:07;21.70;;;20.20;;
15454;SDS011;21057;51.024;7.540;2024-03-02T07:52:34;21.67;;;20.17;;
15454;SDS011;21057;51.024;7.540;2024-03-02T07:55:01;21.30;;;19.90;;
15454;SDS011;21057;51.024;7.540;2024-03-02T07:57:28;20.83;;;19.53;;
15454;SDS011;21057;51.024;7.540;2024-03-02T07:59:55;20.87;;;19.47;;
15454;SDS011;21057;51.024;7.540;2024-03-02T08:02:22;21.20;;;19.63;;
15454;SDS011;21057;51.024;7.540;2024-03-02T08:04:50;21.20;;;19.77;;
15454;SDS011;21057;51.024;7.540;2024-03-02T08:07:17;20.50;;;19.20;;
15454;SDS011;21057;51.024;7.540;2024-03-02T08:09:43;20.57;;;19.07;;
15454;SDS011;21057;51.024;7.540;2024-03-02T08:12:10;20.33;;;19.13;;
15454;SDS011;21057;51.024;7.540;2024-03-02T08:14:37;20.47;;;19.07;;
15454;SDS011;21057;51.024;7.540;2024-03-02T08:17:05;20.50;;;19.20;;
15454;SDS011;21057;51.024;7.540;2024-03-02T08:19:34;21.23;;;19.73;;
15454;SDS011;21057;51.024;7.540;2024-03-02T08:22:03;21.43;;;20.10;;
15454;SDS011;21057;51.024;7.540;2024-03-02T08:24:30;20.57;;;19.27;;
15454;SDS011;21057;51.024;7.540;2024-03-02T08:26:58;21.17;;;19.77;;
15454;SDS011;21057;51.024;7.540;2024-03-02T08:29:25;20.83;;;19.53;;
15454;SDS011;21057;51.024;7.540;2024-03-02T08:31:52;21.50;;;20.00;;
15454;SDS011;21057;51.024;7.540;2024-03-02T08:34:19;21.70;;;20.20;;
15454;SDS011;21057;51.024;7.540;2024-03-02T08:36:46;21.90;;;20.40;;
15454;SDS011;21057;51.024;7.540;2024-03-02T08:39:14;21.10;;;19.80;;
15454;SDS011;21057;51.024;7.540;2024-03-02T08:41:41;21.80;;;20.20;;
15454;SDS011;21057;51.024;7.540;2024-03-02T08:44:08;21.07;;;19.67;;
15454;SDS011;21057;51.024;7.540;2024-03-02T08:46:35;21.37;;;19.87;;
15454;SDS011;21057;51.024;7.540;2024-03-02T08:49:02;21.77;;;20.27;;
15454;SDS011;21057;51.024;7.540;2024-03-02T08:51:29;21.90;;;20.50;;
15454;SDS011;21057;51.024;7.540;2024-03-02T08:53:56;23.30;;;21.60;;
15454;SDS011;21057;51.024;7.540;2024-03-02T08:56:25;21.70;;;20.30;;
15454;SDS011;21057;51.024;7.540;2024-03-02T08:58:52;21.80;;;20.40;;
15454;SDS011;21057;51.024;7.540;2024-03-02T09:01:19;21.63;;;20.23;;
15454;SDS011;21057;51.024;7.540;2024-03-02T09:03:46;21.90;;;20.50;;
15454;SDS011;21057;51.024;7.540;2024-03-02T09:06:14;22.63;;;21.13;;
15454;SDS011;21057;51.024;7.540;2024-03-02T09:08:41;21.93;;;20.53;;
15454;SDS011;21057;51.024;7.540;2024-03-02T09:11:08;21.00;;;19.60;;
15454;SDS011;21057;51.024;7.540;2024-03-02T09:13:38;21.30;;;19.90;;
15454;SDS011;21057;51.024;7.540;2024-03-02T09:16:05;21.63;;;20.13;;
15454;SDS011;21057;51.024;7.540;2024-03-02T09:18:35;21.90;;;20.37;;
15454;SDS011;21057;51.024;7.540;2024-03-02T09:21:02;21.50;;;20.00;;
15454;SDS011;21057;51.024;7.540;2024-03-02T09:23:30;21.13;;;19.73;;
15454;SDS011;21057;51.024;7.540;2024-03-02T09:25:56;20.87;;;19.57;;
15454;SDS011;21057;51.024;7.540;2024-03-02T09:28:23;21.17;;;19.67;;
15454;SDS011;21057;51.024;7.540;2024-03-02T09:30:51;21.43;;;19.83;;
15454;SDS011;21057;51.024;7.540;2024-03-02T09:33:18;20.90;;;19.60;;
15454;SDS011;21057;51.024;7.540;2024-03-02T09:35:45;20.93;;;19.53;;
15454;SDS011;21057;51.024;7.540;2024-03-02T09:38:13;21.63;;;20.23;;
15454;SDS011;21057;51.024;7.540;2024-03-02T09:40:41;21.20;;;19.80;;
15454;SDS011;21057;51.024;7.540;2024-03-02T09:43:08;21.53;;;20.13;;
15454;SDS011;21057;51.024;7.540;2024-03-02T09:45:35;21.20;;;19.70;;
15454;SDS011;21057;51.024;7.540;2024-03-02T09:48:04;21.33;;;20.03;;
15454;SDS011;21057;51.024;7.540;2024-03-02T09:50:32;20.80;;;19.50;;
15454;SDS011;21057;51.024;7.540;2024-03-02T09:52:59;21.60;;;20.20;;
15454;SDS011;21057;51.024;7.540;2024-03-02T09:55:26;21.60;;;20.00;;
15454;SDS011;21057;51.024;7.540;2024-03-02T09:57:53;20.97;;;19.37;;
15454;SDS011;21057;51.024;7.540;2024-03-02T10:00:20;20.57;;;19.30;;
15454;SDS011;21057;51.024;7.540;2024-03-02T10:02:46;20.93;;;19.63;;
15454;SDS011;21057;51.024;7.540;2024-03-02T10:05:22;20.80;;;19.40;;
15454;SDS011;21057;51.024;7.540;2024-03-02T10:07:54;21.17;;;19.50;;
15454;SDS011;21057;51.024;7.540;2024-03-02T10:10:26;20.80;;;19.50;;
15454;SDS011;21057;51.024;7.540;2024-03-02T10:13:03;20.70;;;19.40;;
15454;SDS011;21057;51.024;7.540;2024-03-02T10:15:31;20.60;;;19.30;;
15454;SDS011;21057;51.024;7.540;2024-03-02T10:17:58;20.60;;;19.20;;
15454;SDS011;21057;51.024;7.540;2024-03-02T10:20:26;19.80;;;18.50;;
15454;SDS011;21057;51.024;7.540;2024-03-02T10:22:54;20.63;;;19.33;;
15454;SDS011;21057;51.024;7.540;2024-03-02T10:25:28;19.80;;;18.50;;
15454;SDS011;21057;51.024;7.540;2024-03-02T10:27:58;19.33;;;18.02;;
15454;SDS011;21057;51.024;7.540;2024-03-02T10:30:25;20.63;;;19.23;;
15454;SDS011;21057;51.024;7.540;2024-03-02T10:32:53;20.48;;;19.08;;
15454;SDS011;21057;51.024;7.540;2024-03-02T10:35:20;19.80;;;18.40;;
15454;SDS011;21057;51.024;7.540;2024-03-02T10:37:49;20.48;;;18.98;;
15454;SDS011;21057;51.024;7.540;2024-03-02T10:40:17;20.25;;;18.88;;
15454;SDS011;21057;51.024;7.540;2024-03-02T10:42:47;20.67;;;19.27;;
15454;SDS011;21057;51.024;7.540;2024-03-02T10:45:15;20.80;;;19.40;;
15454;SDS011;21057;51.024;7.540;2024-03-02T10:47:42;18.75;;;17.55;;
15454;SDS011;21057;51.024;7.540;2024-03-02T10:50:09;20.20;;;18.85;;
15454;SDS011;21057;51.024;7.540;2024-03-02T10:52:36;18.95;;;17.65;;
15454;SDS011;21057;51.024;7.540;2024-03-02T10:55:06;18.88;;;17.58;;
15454;SDS011;21057;51.024;7.540;2024-03-02T10:57:36;19.20;;;17.90;;
15454;SDS011;21057;51.024;7.540;2024-03-02T11:00:10;19.67;;;18.27;;
15454;SDS011;21057;51.024;7.540;2024-03-02T11:02:42;19.13;;;17.83;;
15454;SDS011;21057;51.024;7.540;2024-03-02T11:05:13;18.63;;;17.40;;
15454;SDS011;21057;51.024;7.540;2024-03-02T11:07:50;21.40;;;20.00;;
15454;SDS011;21057;51.024;7.540;2024-03-02T11:10:21;20.73;;;19.33;;
15454;SDS011;21057;51.024;7.540;2024-03-02T11:12:51;19.15;;;17.95;;
15454;SDS011;21057;51.024;7.540;2024-03-02T11:15:24;18.25;;;17.05;;
15454;SDS011;21057;51.024;7.540;2024-03-02T11:17:52;19.67;;;18.38;;
15454;SDS011;21057;51.024;7.540;2024-03-02T11:20:20;20.08;;;18.70;;
15454;SDS011;21057;51.024;7.540;2024-03-02T11:22:47;19.95;;;18.65;;
15454;SDS011;21057;51.024;7.540;2024-03-02T11:25:25;20.10;;;18.60;;
15454;SDS011;21057;51.024;7.540;2024-03-02T11:27:59;22.33;;;20.80;;
15454;SDS011;21057;51.024;7.540;2024-03-02T11:33:24;21.23;;;19.73;;
15454;SDS011;21057;51.024;7.540;2024-03-02T11:35:55;22.27;;;20.88;;
15454;SDS011;21057;51.024;7.540;2024-03-02T11:38:27;21.88;;;20.38;;
15454;SDS011;21057;51.024;7.540;2024-03-02T11:40:56;20.67;;;19.27;;
15454;SDS011;21057;51.024;7.540;2024-03-02T11:43:23;21.13;;;19.73;;
15454;SDS011;21057;51.024;7.540;2024-03-02T11:45:56;21.42;;;19.92;;
15454;SDS011;21057;51.024;7.540;2024-03-02T11:48:24;21.30;;;20.00;;
15454;SDS011;21057;51.024;7.540;2024-03-02T11:50:51;20.98;;;19.48;;
15454;SDS011;21057;51.024;7.540;2024-03-02T11:53:19;20.75;;;19.35;;
15454;SDS011;21057;51.024;7.540;2024-03-02T11:55:46;21.10;;;19.70;;
15454;SDS011;21057;51.024;7.540;2024-03-02T11:58:16;20.92;;;19.42;;
15454;SDS011;21057;51.024;7.540;2024-03-02T12:00:45;19.80;;;18.40;;
15454;SDS011;21057;51.024;7.540;2024-03-02T12:03:12;20.17;;;18.88;;
15454;SDS011;21057;51.024;7.540;2024-03-02T12:05:40;20.05;;;18.75;;
15454;SDS011;21057;51.024;7.540;2024-03-02T12:08:07;19.92;;;18.42;;
15454;SDS011;21057;51.024;7.540;2024-03-02T12:10:34;19.98;;;18.67;;
15454;SDS011;21057;51.024;7.540;2024-03-02T12:13:04;19.92;;;18.63;;
15454;SDS011;21057;51.024;7.540;2024-03-02T12:15:34;19.83;;;18.50;;
15454;SDS011;21057;51.024;7.540;2024-03-02T12:18:02;20.37;;;18.87;;
15454;SDS011;21057;51.024;7.540;2024-03-02T12:20:29;20.70;;;19.37;;
15454;SDS011;21057;51.024;7.540;2024-03-02T12:22:57;20.00;;;18.70;;
15454;SDS011;21057;51.024;7.540;2024-03-02T12:25:26;20.07;;;18.77;;
15454;SDS011;21057;51.024;7.540;2024-03-02T12:27:53;20.57;;;19.27;;
15454;SDS011;21057;51.024;7.540;2024-03-02T12:30:21;21.55;;;20.00;;
15454;SDS011;21057;51.024;7.540;2024-03-02T12:32:50;21.17;;;19.67;;
15454;SDS011;21057;51.024;7.540;2024-03-02T12:35:17;19.85;;;18.48;;
15454;SDS011;21057;51.024;7.540;2024-03-02T12:37:44;19.77;;;18.57;;
15454;SDS011;21057;51.024;7.540;2024-03-02T12:40:12;19.83;;;18.53;;
15454;SDS011;21057;51.024;7.540;2024-03-02T12:42:40;21.02;;;19.70;;
15454;SDS011;21057;51.024;7.540;2024-03-02T12:45:07;20.03;;;18.63;;
15454;SDS011;21057;51.024;7.540;2024-03-02T12:47:35;19.77;;;18.27;;
15454;SDS011;21057;51.024;7.540;2024-03-02T12:50:04;19.90;;;18.50;;
15454;SDS011;21057;51.024;7.540;2024-03-02T12:52:32;20.53;;;19.17;;
15454;SDS011;21057;51.024;7.540;2024-03-02T12:55:00;19.95;;;18.65;;
15454;SDS011;21057;51.024;7.540;2024-03-02T12:57:29;20.33;;;18.92;;
15454;SDS011;21057;51.024;7.540;2024-03-02T12:59:58;20.50;;;19.10;;
15454;SDS011;21057;51.024;7.540;2024-03-02T13:02:27;20.55;;;19.17;;
15454;SDS011;21057;51.024;7.540;2024-03-02T13:04:55;20.08;;;18.65;;
15454;SDS011;21057;51.024;7.540;2024-03-02T13:07:25;20.05;;;18.75;;
15454;SDS011;21057;51.024;7.540;2024-03-02T13:09:52;21.75;;;20.35;;
15454;SDS011;21057;51.024;7.540;2024-03-02T13:12:21;20.35;;;18.95;;
15454;SDS011;21057;51.024;7.540;2024-03-02T13:14:48;20.55;;;19.25;;
15454;SDS011;21057;51.024;7.540;2024-03-02T13:17:17;19.20;;;18.00;;
15454;SDS011;21057;51.024;7.540;2024-03-02T13:19:50;19.33;;;18.10;;
15454;SDS011;21057;51.024;7.540;2024-03-02T13:22:18;20.58;;;19.27;;
15454;SDS011;21057;51.024;7.540;2024-03-02T13:24:47;21.45;;;20.05;;
15454;SDS011;21057;51.024;7.540;2024-03-02T13:27:14;21.25;;;19.65;;
15454;SDS011;21057;51.024;7.540;2024-03-02T13:29:41;20.65;;;19.33;;
15454;SDS011;21057;51.024;7.540;2024-03-02T13:32:08;21.58;;;20.08;;
15454;SDS011;21057;51.024;7.540;2024-03-02T13:34:35;22.67;;;21.08;;
15454;SDS011;21057;51.024;7.540;2024-03-02T13:37:02;20.42;;;19.10;;
15454;SDS011;21057;51.024;7.540;2024-03-02T13:39:30;21.08;;;19.48;;
15454;SDS011;21057;51.024;7.540;2024-03-02T13:41:59;20.60;;;19.20;;
15454;SDS011;21057;51.024;7.540;2024-03-02T13:44:30;20.85;;;19.45;;
15454;SDS011;21057;51.024;7.540;2024-03-02T13:46:58;20.42;;;19.02;;
15454;SDS011;21057;51.024;7.540;2024-03-02T13:49:26;25.35;;;23.48;;
15454;SDS011;21057;51.024;7.540;2024-03-02T13:51:58;21.60;;;19.77;;
15454;SDS011;21057;51.024;7.540;2024-03-02T13:54:28;23.58;;;21.88;;
15454;SDS011;21057;51.024;7.540;2024-03-02T13:56:54;20.27;;;18.88;;
15454;SDS011;21057;51.024;7.540;2024-03-02T13:59:24;20.83;;;19.33;;
15454;SDS011;21057;51.024;7.540;2024-03-02T14:01:52;21.58;;;20.17;;
15454;SDS011;21057;51.024;7.540;2024-03-02T14:04:19;21.15;;;19.85;;
15454;SDS011;21057;51.024;7.540;2024-03-02T14:06:46;20.67;;;19.38;;
15454;SDS011;21057;51.024;7.540;2024-03-02T14:09:15;20.02;;;18.73;;
15454;SDS011;21057;51.024;7.540;2024-03-02T14:11:44;20.25;;;18.92;;
15454;SDS011;21057;51.024;7.540;2024-03-02T14:14:14;19.45;;;18.25;;
15454;SDS011;21057;51.024;7.540;2024-03-02T14:16:43;20.48;;;19.08;;
15454;SDS011;21057;51.024;7.540;2024-03-02T14:19:13;20.92;;;19.45;;
15454;SDS011;21057;51.024;7.540;2024-03-02T14:21:40;20.70;;;19.40;;
15454;SDS011;21057;51.024;7.540;2024-03-02T14:24:07;20.08;;;18.77;;
15454;SDS011;21057;51.024;7.540;2024-03-02T14:26:35;20.30;;;18.90;;
15454;SDS011;21057;51.024;7.540;2024-03-02T14:29:02;19.67;;;18.38;;